首页
METAR-TAF:

METAR-TAF

机场 :

布瓦凯, 科特迪瓦

纬度: 07-44N, 经度: 005-04W, 海拔: 376米

当前天气观测

该预报发布于1小时和5分钟前的19:00 UTC
风速4节,风向西南
温度 29°C
湿度 70%
气压 1012 hPa
能见度10公里或以上
少量云层高于1300英尺

METAR: DIBK 071900Z 22004KT 9999 FEW013 29/23 Q1012 NOSIG

时间: 20:05 (20:05 UTC)

预报

该预报发布于9小时和5分钟前的11:00 UTC
预报有效从07日的 12点(UTC)到 08日的 12点(UTC)
风速10节,风向西转西南
能见度10公里或以上
散云层高于1300英尺
短暂存在
从 07日的 15点(UTC)到 07日的 20点(UTC)
多云层高于1300英尺
少量云层高于2500英尺, 积雨云.
雷暴
短暂存在
从 07日的 22点(UTC)到 08日的 02点(UTC)
能見度: 4000
多云层高于1300英尺
少量云层高于2500英尺, 积雨云.
雷暴, 雨
几率 30% :
短暂存在
从 08日的 05点(UTC)到 08日的 09点(UTC)
能見度: 4000
轻雾

TAF: DIBK 071100Z 0712/0812 24010KT 9999 SCT013 TEMPO 0715/0720 TS BKN013 FEW025CB TEMPO 0722/0802 4000 TSRA BKN013 FEW025CB PROB30 TEMPO 0805/0809 4000 BR

超过4000个机场的气象观测和天气预报(METAR&TAF报告)。

可查询的气象台以黄色和红色小点在地图上表示。

将鼠标移到小点上方,可查看气象台名称。

然后点击查看天气观测和预报。

如需切换地图:点击带黑十字的绿色按钮放大地图;点击带横线的绿色按钮缩小地图;或者点击绿色箭头查看邻近地区的地图。


METAR-TAF: